createdAt,value
2018-04-26T00:00:44.697Z,90.10
2018-04-26T00:03:13.053Z,90.10
2018-04-26T00:05:41.119Z,90.10
2018-04-26T00:08:09.185Z,90.30
2018-04-26T00:10:38.059Z,90.50
2018-04-26T00:13:06.114Z,90.50
2018-04-26T00:15:34.198Z,90.60
2018-04-26T00:18:02.791Z,90.50
2018-04-26T00:20:30.780Z,90.60
2018-04-26T00:22:58.846Z,90.50
2018-04-26T00:25:27.270Z,90.50
2018-04-26T00:27:56.096Z,90.70
2018-04-26T00:30:24.174Z,90.70
2018-04-26T00:32:52.370Z,90.90
2018-04-26T00:35:20.430Z,90.70
2018-04-26T00:37:48.491Z,90.70
2018-04-26T00:40:16.957Z,90.70
2018-04-26T00:42:44.946Z,90.20
2018-04-26T00:45:13.019Z,90.40
2018-04-26T00:47:41.422Z,90.40
2018-04-26T00:50:09.486Z,90.40
2018-04-26T00:52:37.538Z,90.40
2018-04-26T00:55:05.966Z,90.40
2018-04-26T00:57:34.790Z,90.20
2018-04-26T01:00:02.854Z,90.20
2018-04-26T01:02:31.413Z,90.20
2018-04-26T01:05:00.233Z,90.00
2018-04-26T01:07:28.294Z,90.00
2018-04-26T01:09:56.547Z,90.00
2018-04-26T01:12:26.001Z,90.00
2018-04-26T01:14:54.053Z,90.00
2018-04-26T01:17:22.584Z,89.90
2018-04-26T01:19:50.645Z,89.40
2018-04-26T01:22:18.709Z,89.10
2018-04-26T01:24:47.177Z,89.00
2018-04-26T01:27:15.209Z,88.90
2018-04-26T01:29:43.266Z,89.20
2018-04-26T01:32:12.545Z,90.20
2018-04-26T01:34:40.612Z,90.20
2018-04-26T01:37:20.556Z,90.00
2018-04-26T01:39:49.037Z,90.30
2018-04-26T01:42:17.098Z,90.10
2018-04-26T01:44:45.169Z,89.80
2018-04-26T01:47:13.558Z,90.00
2018-04-26T01:49:42.893Z,89.80
2018-04-26T01:52:11.727Z,90.10
2018-04-26T01:54:39.917Z,90.10
2018-04-26T01:57:07.988Z,90.00
2018-04-26T01:59:36.040Z,90.20
2018-04-26T02:02:04.453Z,90.20
2018-04-26T02:04:32.513Z,91.00
2018-04-26T02:07:00.581Z,91.10
2018-04-26T02:09:28.975Z,91.20
2018-04-26T02:11:57.032Z,91.30
2018-04-26T02:14:25.610Z,91.20
2018-04-26T02:16:54.113Z,91.20
2018-04-26T02:19:22.169Z,91.60
2018-04-26T02:21:50.238Z,91.50
2018-04-26T02:24:18.654Z,91.60
2018-04-26T02:26:47.483Z,91.60
2018-04-26T02:29:15.821Z,91.50
2018-04-26T02:31:43.903Z,91.40
2018-04-26T02:34:11.965Z,91.60
2018-04-26T02:36:40.513Z,91.80
2018-04-26T02:39:08.585Z,91.70
2018-04-26T02:41:36.655Z,91.50
2018-04-26T02:44:05.346Z,91.10
2018-04-26T02:46:33.414Z,91.00
2018-04-26T02:49:01.512Z,91.10
2018-04-26T02:51:30.796Z,90.50
2018-04-26T02:53:58.846Z,90.40
2018-04-26T02:56:26.937Z,90.60
2018-04-26T02:58:55.295Z,90.20
2018-04-26T03:01:23.368Z,90.10
2018-04-26T03:03:51.442Z,89.70
2018-04-26T03:06:19.809Z,89.70
2018-04-26T03:08:47.874Z,89.60
2018-04-26T03:11:15.946Z,90.00
2018-04-26T03:13:44.337Z,89.10
2018-04-26T03:16:12.881Z,88.90
2018-04-26T03:18:40.951Z,89.10
2018-04-26T03:21:09.465Z,89.10
2018-04-26T03:23:37.521Z,89.10
2018-04-26T03:26:05.613Z,89.10
2018-04-26T03:28:34.025Z,89.50
2018-04-26T03:31:02.963Z,89.70
2018-04-26T03:33:30.921Z,89.70
2018-04-26T03:35:59.434Z,90.20
2018-04-26T03:38:27.487Z,90.30
2018-04-26T03:40:55.562Z,90.50
2018-04-26T03:43:23.764Z,90.50
2018-04-26T03:45:51.825Z,90.40
2018-04-26T03:48:19.881Z,90.30
2018-04-26T03:50:48.322Z,90.50
2018-04-26T03:53:16.381Z,90.30
2018-04-26T03:55:45.201Z,90.20
2018-04-26T03:58:13.622Z,90.10
2018-04-26T04:00:53.414Z,90.20
2018-04-26T04:03:46.049Z,90.30
2018-04-26T04:06:14.927Z,90.10
2018-04-26T04:08:43.389Z,90.30
2018-04-26T04:11:11.491Z,89.90
2018-04-26T04:13:40.318Z,88.70
2018-04-26T04:16:08.517Z,88.60
2018-04-26T04:18:37.061Z,88.80
2018-04-26T04:21:05.117Z,88.60
2018-04-26T04:23:33.670Z,88.40
2018-04-26T04:26:02.512Z,88.60
2018-04-26T04:28:30.596Z,88.60
2018-04-26T04:30:59.729Z,88.20
2018-04-26T04:33:27.788Z,88.20
2018-04-26T04:35:55.880Z,88.60
2018-04-26T04:38:25.150Z,88.00
2018-04-26T04:40:53.214Z,88.00
2018-04-26T04:43:21.298Z,88.20
2018-04-26T04:45:49.664Z,88.70
2018-04-26T04:48:17.720Z,89.00
2018-04-26T04:50:45.810Z,89.30
2018-04-26T04:53:14.205Z,89.50
2018-04-26T04:55:42.282Z,89.50
2018-04-26T04:58:11.163Z,89.50
2018-04-26T05:00:39.352Z,89.50
2018-04-26T05:03:08.188Z,89.60
2018-04-26T05:05:36.262Z,89.50
2018-04-26T05:08:04.780Z,90.00
2018-04-26T05:10:32.836Z,90.10
2018-04-26T05:13:00.904Z,90.00
2018-04-26T05:15:29.337Z,90.20
2018-04-26T05:17:57.392Z,90.00
2018-04-26T05:20:27.017Z,88.50
2018-04-26T05:22:55.988Z,89.60
2018-04-26T05:25:24.817Z,89.60
2018-04-26T05:27:52.879Z,89.60
2018-04-26T05:30:21.458Z,89.80
2018-04-26T05:32:49.527Z,89.10
2018-04-26T05:35:17.593Z,89.10
2018-04-26T05:37:45.937Z,88.20
2018-04-26T05:40:14.047Z,88.00
2018-04-26T05:42:42.101Z,87.50
2018-04-26T05:45:11.379Z,87.50
2018-04-26T05:47:39.429Z,87.40
2018-04-26T05:50:07.497Z,87.50
2018-04-26T05:52:35.613Z,86.80
2018-04-26T05:55:04.439Z,85.90
2018-04-26T05:57:32.547Z,85.90
2018-04-26T06:00:01.024Z,87.20
2018-04-26T06:02:29.076Z,86.40
2018-04-26T06:04:57.160Z,86.90
2018-04-26T06:07:25.531Z,86.80
2018-04-26T06:09:53.608Z,85.70
2018-04-26T06:12:21.699Z,85.70
2018-04-26T06:14:50.143Z,85.90
2018-04-26T06:17:18.202Z,85.70
2018-04-26T06:19:46.289Z,85.70
2018-04-26T06:22:15.059Z,85.30
2018-04-26T06:24:43.105Z,86.90
2018-04-26T06:27:11.184Z,85.20
2018-04-26T06:29:39.708Z,85.20
2018-04-26T06:32:07.768Z,85.50
2018-04-26T06:34:35.862Z,84.70
2018-04-26T06:37:04.282Z,85.50
2018-04-26T06:39:33.119Z,85.20
2018-04-26T06:42:01.190Z,85.10
2018-04-26T06:44:29.680Z,86.20
2018-04-26T06:46:57.741Z,85.70
2018-04-26T06:49:25.827Z,86.90
2018-04-26T06:51:54.203Z,86.80
2018-04-26T06:54:22.259Z,86.90
2018-04-26T06:56:50.329Z,86.70
2018-04-26T06:59:18.719Z,87.20
2018-04-26T07:01:46.781Z,87.50
2018-04-26T07:04:14.850Z,86.50
2018-04-26T07:06:43.242Z,86.20
2018-04-26T07:09:11.306Z,85.50
2018-04-26T07:11:39.467Z,86.70
2018-04-26T07:14:08.677Z,85.20
2018-04-26T07:16:36.739Z,85.10
2018-04-26T07:19:04.805Z,85.90
2018-04-26T07:21:33.050Z,86.00
2018-04-26T07:24:01.748Z,85.60
2018-04-26T07:26:29.832Z,85.40
2018-04-26T07:28:57.990Z,84.10
2018-04-26T07:31:26.064Z,84.50
2018-04-26T07:33:54.146Z,83.60
2018-04-26T07:36:22.548Z,83.40
2018-04-26T07:38:50.598Z,83.50
2018-04-26T07:41:18.672Z,82.60
2018-04-26T07:43:47.070Z,83.60
2018-04-26T07:46:15.136Z,85.30
2018-04-26T07:48:43.208Z,83.00
2018-04-26T07:51:11.594Z,82.80
2018-04-26T07:53:39.679Z,83.40
2018-04-26T07:56:07.734Z,83.90
2018-04-26T07:58:36.115Z,83.40
2018-04-26T08:01:04.788Z,84.80
2018-04-26T08:03:32.841Z,85.60
2018-04-26T08:06:00.897Z,83.30
2018-04-26T08:08:29.645Z,83.70
2018-04-26T08:10:57.701Z,83.90
2018-04-26T08:13:25.773Z,84.20
2018-04-26T08:15:53.963Z,84.50
2018-04-26T08:18:22.020Z,83.30
2018-04-26T08:20:50.077Z,82.60
2018-04-26T08:23:18.501Z,83.00
2018-04-26T08:25:47.215Z,84.00
2018-04-26T08:28:15.273Z,85.80
2018-04-26T08:30:43.492Z,86.80
2018-04-26T08:33:11.551Z,85.50
2018-04-26T08:35:39.645Z,85.90
2018-04-26T08:38:08.320Z,85.90
2018-04-26T08:40:36.457Z,87.20
2018-04-26T08:43:04.543Z,87.70
2018-04-26T08:45:32.943Z,87.60
2018-04-26T08:48:00.994Z,89.60
2018-04-26T08:50:29.060Z,89.30
2018-04-26T08:52:57.161Z,88.50
2018-04-26T08:55:25.216Z,87.80
2018-04-26T08:57:53.294Z,87.50
2018-04-26T09:00:21.884Z,89.30
2018-04-26T09:02:49.953Z,86.00
2018-04-26T09:05:18.032Z,86.20
2018-04-26T09:07:46.448Z,85.60
2018-04-26T09:10:14.502Z,86.60
2018-04-26T09:12:43.343Z,85.60
2018-04-26T09:15:11.837Z,85.50
2018-04-26T09:17:39.945Z,86.50
2018-04-26T09:20:08.773Z,85.20
2018-04-26T09:22:36.969Z,85.20
2018-04-26T09:25:05.050Z,86.30
2018-04-26T09:27:33.323Z,85.40
2018-04-26T09:30:01.815Z,84.50
2018-04-26T09:32:29.882Z,86.70
2018-04-26T09:34:57.945Z,85.80
2018-04-26T09:37:27.237Z,85.80
2018-04-26T09:39:55.342Z,85.70
2018-04-26T09:42:24.173Z,85.70
2018-04-26T09:44:52.688Z,85.70
2018-04-26T09:47:20.778Z,85.00
2018-04-26T09:49:48.846Z,85.30
2018-04-26T09:52:17.510Z,84.20
2018-04-26T09:54:45.604Z,86.30
2018-04-26T09:57:13.676Z,85.40
2018-04-26T09:59:42.053Z,85.40
2018-04-26T10:02:10.126Z,85.70
2018-04-26T10:04:43.859Z,86.00
2018-04-26T10:07:12.518Z,86.60
2018-04-26T10:09:41.344Z,87.50
2018-04-26T10:12:09.532Z,87.40
2018-04-26T10:14:37.867Z,86.90
2018-04-26T10:17:06.693Z,87.30
2018-04-26T10:19:34.775Z,87.30
2018-04-26T10:22:03.293Z,87.00
2018-04-26T10:24:31.403Z,87.10
2018-04-26T10:26:59.457Z,88.30
2018-04-26T10:29:28.531Z,87.00
2018-04-26T10:31:57.112Z,87.00
2018-04-26T10:34:25.171Z,86.60
2018-04-26T10:36:53.232Z,85.50
2018-04-26T10:39:21.944Z,83.60
2018-04-26T10:41:50.007Z,84.50
2018-04-26T10:44:18.090Z,84.40
2018-04-26T10:46:46.248Z,84.30
2018-04-26T10:49:14.310Z,82.00
2018-04-26T10:51:42.366Z,81.80
2018-04-26T10:54:11.002Z,83.10
2018-04-26T10:56:39.830Z,82.10
2018-04-26T10:59:07.901Z,82.10
2018-04-26T11:01:36.421Z,81.20
2018-04-26T11:04:04.485Z,82.40
2018-04-26T11:06:32.548Z,81.50
2018-04-26T11:09:01.246Z,81.90
2018-04-26T11:11:29.379Z,83.70
2018-04-26T11:13:57.410Z,83.80
2018-04-26T11:16:26.430Z,83.00
2018-04-26T11:18:54.480Z,82.90
2018-04-26T11:21:22.659Z,83.40
2018-04-26T11:23:50.897Z,83.30
2018-04-26T11:26:18.946Z,82.90
2018-04-26T11:28:47.317Z,83.40
2018-04-26T11:31:15.901Z,83.20
2018-04-26T11:33:43.968Z,81.00
2018-04-26T11:36:12.087Z,81.50
2018-04-26T11:38:40.539Z,79.00
2018-04-26T11:41:08.602Z,78.90
2018-04-26T11:43:36.669Z,77.30
2018-04-26T11:46:05.061Z,76.50
2018-04-26T11:48:33.123Z,76.50
2018-04-26T11:51:01.190Z,74.60
2018-04-26T11:53:29.612Z,74.20
2018-04-26T11:55:57.682Z,75.80
2018-04-26T11:58:26.514Z,75.30
2018-04-26T12:00:55.049Z,75.10
2018-04-26T12:03:23.118Z,73.90
2018-04-26T12:05:51.429Z,73.00
2018-04-26T12:08:19.942Z,71.00
2018-04-26T12:10:48.018Z,71.60
2018-04-26T12:13:16.174Z,70.90
2018-04-26T12:15:44.465Z,70.10
2018-04-26T12:18:12.521Z,72.60
2018-04-26T12:20:40.585Z,73.00
2018-04-26T12:23:08.897Z,71.60
2018-04-26T12:25:37.015Z,73.00
2018-04-26T12:28:05.023Z,73.70
2018-04-26T12:30:33.437Z,72.50
2018-04-26T12:33:01.851Z,71.00
2018-04-26T12:35:30.651Z,71.60
2018-04-26T12:37:59.206Z,71.40
2018-04-26T12:40:28.035Z,72.80
2018-04-26T12:42:56.091Z,72.70
2018-04-26T12:45:24.613Z,71.90
2018-04-26T12:47:52.673Z,73.20
2018-04-26T12:50:20.752Z,72.70
2018-04-26T12:52:49.155Z,69.90
2018-04-26T12:55:17.213Z,71.50
2018-04-26T12:57:45.260Z,70.10
2018-04-26T13:00:13.737Z,71.00
2018-04-26T13:02:41.804Z,69.90
2018-04-26T13:05:09.888Z,71.20
2018-04-26T13:07:38.187Z,69.60
2018-04-26T13:10:06.244Z,69.60
2018-04-26T13:12:34.302Z,70.10
2018-04-26T13:15:02.762Z,67.90
2018-04-26T13:17:30.849Z,69.30
2018-04-26T13:19:58.888Z,68.20
2018-04-26T13:22:27.533Z,68.10
2018-04-26T13:24:55.586Z,67.50
2018-04-26T13:27:23.706Z,69.20
2018-04-26T13:29:52.100Z,69.60
2018-04-26T13:32:20.901Z,67.00
2018-04-26T13:34:49.096Z,66.90
2018-04-26T13:37:17.485Z,67.20
2018-04-26T13:39:45.575Z,68.90
2018-04-26T13:42:13.619Z,70.10
2018-04-26T13:44:42.305Z,71.10
2018-04-26T13:47:10.370Z,69.30
2018-04-26T13:49:38.432Z,69.90
2018-04-26T13:52:06.703Z,67.80
2018-04-26T13:54:34.730Z,69.60
2018-04-26T13:57:03.590Z,68.20
2018-04-26T13:59:32.266Z,68.20
2018-04-26T14:02:00.328Z,69.20
2018-04-26T14:04:28.392Z,67.20
2018-04-26T14:06:56.594Z,65.60
2018-04-26T14:09:24.698Z,67.40
2018-04-26T14:11:53.519Z,64.50
2018-04-26T14:14:21.756Z,64.50
2018-04-26T14:16:49.844Z,66.20
2018-04-26T14:19:17.914Z,66.20
2018-04-26T14:21:46.274Z,65.70
2018-04-26T14:24:14.368Z,66.70
2018-04-26T14:26:42.432Z,65.40
2018-04-26T14:29:10.965Z,67.00
2018-04-26T14:31:39.055Z,66.80
2018-04-26T14:34:07.155Z,67.90
2018-04-26T14:36:35.961Z,68.80
2018-04-26T14:39:04.067Z,68.90
2018-04-26T14:41:32.123Z,67.60
2018-04-26T14:44:00.311Z,68.10
2018-04-26T14:46:28.375Z,68.00
2018-04-26T14:48:56.439Z,66.30
2018-04-26T14:51:24.708Z,67.00
2018-04-26T14:53:52.765Z,66.30
2018-04-26T14:56:20.833Z,65.20
2018-04-26T14:58:49.357Z,65.10
2018-04-26T15:01:17.444Z,64.60
2018-04-26T15:03:45.507Z,63.90
2018-04-26T15:06:13.883Z,64.90
2018-04-26T15:08:41.977Z,64.40
2018-04-26T15:11:10.807Z,64.80
2018-04-26T15:13:39.007Z,64.80
2018-04-26T15:16:07.081Z,63.70
2018-04-26T15:18:35.469Z,64.00
2018-04-26T15:21:03.544Z,66.30
2018-04-26T15:23:31.640Z,66.90
2018-04-26T15:26:00.633Z,67.30
2018-04-26T15:28:29.463Z,64.70
2018-04-26T15:30:57.537Z,64.60
2018-04-26T15:33:25.768Z,63.60
2018-04-26T15:35:54.591Z,64.40
2018-04-26T15:38:23.101Z,64.30
2018-04-26T15:40:51.485Z,63.60
2018-04-26T15:43:19.542Z,64.20
2018-04-26T15:45:47.625Z,66.00
2018-04-26T15:48:16.309Z,64.40
2018-04-26T15:50:59.173Z,63.10
2018-04-26T15:53:38.961Z,62.70
2018-04-26T15:56:30.785Z,64.20
2018-04-26T15:59:11.490Z,64.70
2018-04-26T16:05:32.676Z,62.50
2018-04-26T16:08:18.181Z,62.40
2018-04-26T16:11:03.682Z,62.80
2018-04-26T16:13:49.353Z,63.10
2018-04-26T16:16:35.018Z,60.10
2018-04-26T16:19:24.108Z,61.70
2018-04-26T16:22:09.780Z,61.60
2018-04-26T16:24:53.721Z,61.50
2018-04-26T16:27:39.420Z,61.10
2018-04-26T16:30:19.631Z,60.60
2018-04-26T16:33:05.541Z,59.70
2018-04-26T16:35:45.313Z,62.50
2018-04-26T16:38:25.462Z,63.00
2018-04-26T16:40:54.050Z,62.10
2018-04-26T16:43:22.120Z,59.80
2018-04-26T16:45:50.196Z,60.70
2018-04-26T16:48:18.301Z,60.60
2018-04-26T16:50:46.378Z,62.40
2018-04-26T16:53:14.440Z,61.80
2018-04-26T16:55:42.767Z,62.50
2018-04-26T16:58:10.828Z,64.50
2018-04-26T17:00:38.905Z,60.50
2018-04-26T17:03:07.285Z,60.00
2018-04-26T17:05:35.372Z,61.80
2018-04-26T17:08:03.426Z,61.40
2018-04-26T17:10:31.810Z,61.50
2018-04-26T17:12:59.901Z,61.00
2018-04-26T17:15:28.729Z,59.30
2018-04-26T17:17:57.118Z,59.20
2018-04-26T17:20:25.210Z,62.10
2018-04-26T17:22:53.268Z,61.90
2018-04-26T17:25:21.766Z,61.90
2018-04-26T17:27:49.848Z,65.00
2018-04-26T17:30:17.894Z,62.20
2018-04-26T17:32:46.293Z,62.50
2018-04-26T17:35:14.357Z,63.40
2018-04-26T17:37:42.413Z,66.00
2018-04-26T17:40:11.678Z,69.60
2018-04-26T17:42:39.646Z,69.40
2018-04-26T17:45:07.707Z,69.30
2018-04-26T17:47:36.258Z,71.40
2018-04-26T17:50:04.328Z,72.80
2018-04-26T17:52:32.413Z,73.20
2018-04-26T17:55:00.768Z,75.90
2018-04-26T17:57:28.829Z,74.60
2018-04-26T17:59:56.893Z,70.60
2018-04-26T18:02:25.288Z,69.70
2018-04-26T18:04:53.339Z,72.50
2018-04-26T18:07:21.407Z,72.40
2018-04-26T18:09:49.818Z,72.00
2018-04-26T18:12:17.934Z,70.80
2018-04-26T18:14:45.984Z,72.40
2018-04-26T18:17:14.328Z,72.40
2018-04-26T18:19:42.422Z,73.00
2018-04-26T18:22:10.460Z,73.60
2018-04-26T18:24:38.692Z,72.50
2018-04-26T18:27:07.539Z,70.80
2018-04-26T18:29:35.593Z,70.80
2018-04-26T18:32:04.365Z,72.60
2018-04-26T18:34:32.381Z,74.60
2018-04-26T18:37:00.441Z,74.90
2018-04-26T18:39:28.629Z,73.40
2018-04-26T18:41:57.363Z,75.70
2018-04-26T18:44:25.434Z,73.20
2018-04-26T18:46:53.649Z,75.30
2018-04-26T18:49:21.713Z,74.00
2018-04-26T18:51:49.773Z,74.50
2018-04-26T18:54:18.473Z,76.70
2018-04-26T18:56:46.569Z,75.60
2018-04-26T18:59:15.398Z,76.00
2018-04-26T19:01:43.605Z,76.00
2018-04-26T19:04:11.697Z,76.00
2018-04-26T19:06:39.763Z,77.00
2018-04-26T19:09:08.166Z,74.60
2018-04-26T19:11:36.217Z,73.00
2018-04-26T19:14:04.282Z,74.20
2018-04-26T19:16:32.647Z,74.50
2018-04-26T19:19:00.725Z,74.00
2018-04-26T19:21:28.789Z,74.30
2018-04-26T19:23:57.173Z,73.90
2018-04-26T19:26:25.276Z,72.60
2018-04-26T19:28:54.089Z,72.10
2018-04-26T19:31:22.657Z,72.00
2018-04-26T19:33:51.508Z,73.10
2018-04-26T19:36:19.630Z,73.10
2018-04-26T19:38:48.076Z,74.00
2018-04-26T19:41:16.139Z,73.60
2018-04-26T19:43:44.865Z,72.70
2018-04-26T19:46:13.812Z,72.50
2018-04-26T19:48:41.880Z,71.70
2018-04-26T19:51:09.943Z,71.50
2018-04-26T19:53:38.326Z,71.30
2018-04-26T19:56:06.394Z,72.10
2018-04-26T19:58:34.461Z,70.70
2018-04-26T20:01:02.649Z,72.40
2018-04-26T20:03:30.723Z,71.30
2018-04-26T20:05:58.779Z,72.70
2018-04-26T20:08:27.055Z,73.20
2018-04-26T20:10:55.135Z,72.70
2018-04-26T20:13:23.203Z,72.30
2018-04-26T20:15:51.889Z,72.20
2018-04-26T20:18:19.962Z,73.10
2018-04-26T20:20:48.108Z,73.00
2018-04-26T20:23:16.434Z,73.70
2018-04-26T20:25:45.265Z,74.30
2018-04-26T20:28:13.339Z,74.30
2018-04-26T20:30:41.900Z,74.10
2018-04-26T20:33:09.969Z,74.30
2018-04-26T20:35:38.027Z,76.30
2018-04-26T20:38:07.323Z,78.00
2018-04-26T20:40:36.141Z,78.90
2018-04-26T20:43:04.206Z,78.70
2018-04-26T20:45:32.637Z,80.80
2018-04-26T20:48:00.710Z,78.50
2018-04-26T20:50:28.787Z,81.30
2018-04-26T20:52:58.895Z,79.80
2018-04-26T20:55:28.003Z,81.10
2018-04-26T20:57:56.040Z,80.20
2018-04-26T21:00:24.266Z,80.70
2018-04-26T21:02:53.099Z,83.80
2018-04-26T21:05:21.173Z,83.80
2018-04-26T21:07:49.680Z,83.30
2018-04-26T21:10:17.743Z,83.90
2018-04-26T21:12:45.798Z,83.30
2018-04-26T21:15:14.776Z,82.50
2018-04-26T21:17:42.844Z,78.60
2018-04-26T21:20:10.956Z,76.50
2018-04-26T21:22:39.334Z,77.80
2018-04-26T21:25:07.391Z,79.10
2018-04-26T21:27:35.495Z,80.20
2018-04-26T21:30:03.924Z,80.10
2018-04-26T21:32:31.980Z,79.50
2018-04-26T21:35:00.077Z,80.50
2018-04-26T21:37:28.679Z,80.20
2018-04-26T21:39:56.742Z,81.20
2018-04-26T21:42:24.841Z,82.60
2018-04-26T21:44:53.513Z,83.20
2018-04-26T21:47:21.801Z,83.20
2018-04-26T21:49:55.423Z,83.20
2018-04-26T21:52:29.526Z,85.10
2018-04-26T21:55:03.258Z,83.40
2018-04-26T21:57:37.390Z,84.40
2018-04-26T22:00:11.157Z,83.10
2018-04-26T22:02:39.917Z,78.20
2018-04-26T22:05:13.669Z,78.10
2018-04-26T22:07:42.081Z,75.70
2018-04-26T22:10:10.141Z,79.10
2018-04-26T22:12:38.210Z,76.30
2018-04-26T22:15:06.663Z,72.80
2018-04-26T22:17:34.717Z,75.30
2018-04-26T22:20:03.553Z,78.60
2018-04-26T22:22:31.824Z,78.50
2018-04-26T22:24:59.891Z,79.80
2018-04-26T22:27:27.945Z,78.80
2018-04-26T22:29:56.607Z,77.70
2018-04-26T22:32:25.428Z,77.30
2018-04-26T22:34:53.490Z,77.10
2018-04-26T22:37:22.014Z,76.90
2018-04-26T22:39:50.078Z,77.90
2018-04-26T22:42:18.167Z,76.40
2018-04-26T22:44:46.852Z,75.20
2018-04-26T22:47:14.911Z,75.70
2018-04-26T22:49:43.725Z,74.10
2018-04-26T22:52:12.289Z,72.50
2018-04-26T22:54:40.361Z,72.20
2018-04-26T22:57:08.423Z,73.30
2018-04-26T22:59:36.806Z,74.20
2018-04-26T23:02:04.869Z,74.60
2018-04-26T23:04:32.937Z,70.70
2018-04-26T23:07:01.317Z,72.90
2018-04-26T23:09:29.385Z,72.80
2018-04-26T23:11:57.467Z,72.60
2018-04-26T23:14:25.860Z,72.20
2018-04-26T23:16:53.911Z,71.30
2018-04-26T23:19:22.018Z,73.00
2018-04-26T23:21:50.371Z,73.50
2018-04-26T23:24:18.427Z,72.70
2018-04-26T23:26:46.575Z,70.70
2018-04-26T23:29:14.881Z,72.60
2018-04-26T23:31:42.941Z,72.60
2018-04-26T23:34:11.011Z,71.10
2018-04-26T23:36:39.411Z,71.50
2018-04-26T23:39:07.469Z,71.00
2018-04-26T23:41:36.306Z,71.70
2018-04-26T23:44:04.864Z,71.60
2018-04-26T23:46:32.954Z,72.50
2018-04-26T23:49:01.781Z,71.40
2018-04-26T23:51:30.770Z,71.40
2018-04-26T23:53:58.836Z,71.60
2018-04-26T23:56:26.899Z,74.30
2018-04-26T23:58:55.420Z,75.70
